Flight Track Log - Related Links

Times and Time Zones

All times are in EDT time to prevent confusion due to time zone crossing. See the FLG3800 flight status page for this flight to view local times or setup timezone preferences in your user account.

Time Position Orientation Groundspeed Altitude Reporting Facility
EDT Latitude Longitude Course Direction KTS MPH feet Rate Location/Type
Tue 11:12:59 PM 42.2036 -83.3556 90° East 160 184 1,200  Level Cleveland Center
Tue 11:13:59 PM 42.1517 -83.3531 178° South 209 241 3,200 1,983 Climbing Cleveland Center
Tue 11:15:00 PM 42.2878 -82.8942 75° East  Level FlightAware Approximate
Tue 11:15:00 PM 42.0961 -83.3256 160° South 253 291 5,200  Level Cleveland Center
Tue 11:16:00 PM 42.3175 -82.7422 82° East  Level FlightAware Approximate
Tue 11:16:36 PM 42.1142 -83.1753 81° East 310 357 8,600  Level Cleveland Center
Tue 11:17:00 PM 42.3330 -82.5864 82° East  Level FlightAware Approximate
Tue 11:17:36 PM 42.1208 -83.0633 85° East 310 357 10,500  Level Cleveland Center
Tue 11:18:00 PM 42.3667 -82.4397 90° East  Level FlightAware Approximate
Tue 11:18:36 PM 42.1233 -82.9347 88° East 315 362 12,000  Level Cleveland Center
Tue 11:19:36 PM 42.1281 -82.8061 87° East 328 377 13,500 1,500 Climbing Cleveland Center
Tue 11:20:36 PM 42.1350 -82.6664 86° East 346 398 15,000 1,500 Climbing Cleveland Center
Tue 11:21:36 PM 42.1375 -82.5236 89° East 366 421 16,500 1,500 Climbing Cleveland Center
Tue 11:22:36 PM 42.1417 -82.3839 88° East 373 429 18,000 1,600 Climbing Cleveland Center
Tue 11:23:36 PM 42.1436 -82.2550 89° East 373 429 19,700 1,350 Climbing Cleveland Center
Tue 11:24:36 PM 42.1481 -82.0842 88° East 373 429 20,700 950 Climbing Cleveland Center
Tue 11:25:36 PM 42.1522 -81.9331 88° East 386 444 21,600 800 Climbing Cleveland Center
Tue 11:26:36 PM 42.1558 -81.7986 88° East 401 461 22,300 750 Climbing Cleveland Center
Tue 11:27:36 PM 42.1594 -81.6392 88° East 415 478 23,100 800 Climbing Cleveland Center
Tue 11:28:36 PM 42.1650 -81.4794 87° East 422 486 23,900 750 Climbing Cleveland Center
Tue 11:29:36 PM 42.1681 -81.3200 88° East 422 486 24,600 600 Climbing Cleveland Center
Tue 11:30:36 PM 42.1692 -81.1575 89° East 422 486 25,100 500 Climbing Cleveland Center
Tue 11:31:36 PM 42.1761 -80.9725 87° East 434 499 25,600 550 Climbing Cleveland Center
Tue 11:32:36 PM 42.2306 -80.8186 64° Northeast 439 505 26,200 550 Climbing Cleveland Center
Tue 11:33:36 PM 42.2831 -80.6589 66° East 445 512 26,700 500 Climbing Cleveland Center
Tue 11:34:36 PM 42.3372 -80.5044 65° Northeast 450 518 27,200 500 Climbing Cleveland Center
Tue 11:35:36 PM 42.3892 -80.3469 66° East 458 527 27,700 500 Climbing Cleveland Center
Tue 11:36:36 PM 42.4428 -80.1836 66° East 463 533 28,200 500 Climbing Cleveland Center
Tue 11:37:36 PM 42.4942 -80.0228 67° East 458 527 28,700 400 Climbing Cleveland Center
Tue 11:38:36 PM 42.5436 -79.8786 65° Northeast 464 534 29,000 150 Climbing Cleveland Center
Tue 11:39:36 PM 42.5967 -79.7144 66° East 464 534 29,000  Level Cleveland Center
Tue 11:40:36 PM 42.6536 -79.5472 65° Northeast 469 540 29,000  Level Cleveland Center
Tue 11:41:36 PM 42.7081 -79.3739 67° East 480 552 29,000  Level Cleveland Center
Tue 11:42:36 PM 42.7625 -79.2003 67° East 485 558 29,000  Level Cleveland Center
Tue 11:43:36 PM 42.8186 -79.0150 68° East 485 558 29,000  Level Cleveland Center
Tue 11:44:36 PM 42.8744 -78.8436 66° East 485 558 29,000  Level Cleveland Center
Tue 11:45:36 PM 42.9281 -78.6722 67° East 485 558 29,000  Level Cleveland Center
Tue 11:46:36 PM 42.9814 -78.5003 67° East 485 558 29,000  Level Cleveland Center
Tue 11:47:36 PM 43.0342 -78.3281 67° East 485 558 29,000  Level Cleveland Center
Tue 11:48:36 PM 43.0869 -78.1528 68° East 480 552 29,000  Level Cleveland Center
Tue 11:49:36 PM 43.1417 -77.9769 67° East 485 558 29,000  Level Cleveland Center
Tue 11:50:36 PM 43.1939 -77.8067 67° East 485 558 29,000  Level Cleveland Center
Tue 11:52:53 PM 43.3042 -77.4283 68° East 481 554 29,000  Level Boston Center
Tue 11:53:53 PM 43.3578 -77.2500 67° East 486 559 29,000  Level Boston Center
Tue 11:54:54 PM 43.4089 -77.0767 68° East 486 559 29,000  Level Boston Center
Tue 11:55:54 PM 43.4614 -76.9061 67° East 486 559 29,000  Level Boston Center
Tue 11:56:53 PM 43.5119 -76.7294 68° East 486 559 29,000  Level Boston Center
Tue 11:57:54 PM 43.5672 -76.5325 69° East 491 565 29,000  Level Boston Center
Tue 11:58:53 PM 43.6192 -76.3581 68° East 491 565 29,000  Level Boston Center
Tue 11:59:53 PM 43.6594 -76.2144 69° East 491 565 29,000  Level Boston Center
Wed 12:00:53 AM 43.7156 -76.0253 68° East 486 559 29,000  Level Boston Center
Wed 12:01:53 AM 43.7503 -75.8406 75° East 486 559 29,000  Level Boston Center
Wed 12:02:53 AM 43.7767 -75.6550 79° East 486 559 29,000  Level Boston Center
Wed 12:03:53 AM 43.8067 -75.4697 77° East 486 559 29,000  Level Boston Center
Wed 12:04:53 AM 43.8406 -75.2900 75° East 486 559 29,000  Level Boston Center
Wed 12:05:53 AM 43.8822 -75.1075 72° East 486 559 29,000  Level Boston Center
Wed 12:06:53 AM 43.9239 -74.9336 72° East 486 559 29,000 -1,150 Level Boston Center
Wed 12:07:53 AM 43.9731 -74.7739 67° East 467 537 26,700 -2,450 Descending Boston Center
Wed 12:08:53 AM 44.0464 -74.6381 53° Northeast 437 503 24,100 -2,529 Descending Boston Center
Wed 12:09:54 AM 44.1197 -74.5108 51° Northeast 432 497 21,600 -2,500 Descending Boston Center
Wed 12:10:53 AM 44.1906 -74.3886 51° Northeast 420 483 19,100 -2,571 Descending Boston Center
Wed 12:11:53 AM 44.2592 -74.2692 51° Northeast 401 461 16,500 -2,579 Descending Boston Center
Wed 12:12:54 AM 44.3339 -74.1669 44° Northeast 381 438 13,900 -2,628 Descending Boston Center
Wed 12:13:54 AM 44.4161 -74.0939 32° Northeast 335 386 11,200 -2,350 Descending Boston Center
Wed 12:14:54 AM 44.4758 -74.0025 47° Northeast 320 368 9,200 -1,613 Descending Boston Center
Wed 12:15:53 AM 44.5186 -73.9017 59° Northeast 309 356 8,000 -807 Descending Boston Center
Wed 12:16:53 AM 44.5639 -73.7978 59° Northeast 309 356 7,600 -595 Descending Boston Center
Wed 12:17:54 AM 44.6086 -73.6997 57° Northeast 304 350 6,800 -800 Descending Boston Center
Wed 12:18:53 AM 44.6472 -73.6072 60° Northeast 283 326 6,000 -403 Descending Boston Center
Wed 12:19:53 AM 44.6731 -73.5231 67° East 258 297 6,000 -150 Level Boston Center
Wed 12:20:53 AM 44.6403 -73.4436 120° Southeast 212 244 5,700 -800 Descending Boston Center
Wed 12:21:53 AM 44.6036 -73.3644 123° Southeast 218 251 4,400 -1,250 Descending Boston Center
Wed 12:22:53 AM 44.5686 -73.3083 131° Southeast 210 242 3,200 -1,150 Descending Boston Center
Wed 12:23:53 AM 44.5417 -73.2672 133° Southeast 180 207 2,100 -1,100 Descending Boston Center

Login

Don't have an account? Register now (free) for customized features, flight alerts, and more!